createdAt,value
2014-07-25T00:00:02.925Z,0
2014-07-25T00:00:21.130Z,0
2014-07-25T00:00:39.318Z,0
2014-07-25T00:00:57.505Z,0
2014-07-25T00:01:15.693Z,0
2014-07-25T00:01:33.882Z,0
2014-07-25T00:01:52.070Z,0
2014-07-25T00:02:10.257Z,0
2014-07-25T00:02:28.447Z,0
2014-07-25T00:02:46.634Z,0
2014-07-25T00:03:04.837Z,0
2014-07-25T00:03:23.027Z,0
2014-07-25T00:03:41.214Z,0
2014-07-25T00:03:59.402Z,0
2014-07-25T00:04:17.589Z,0
2014-07-25T00:04:35.794Z,0
2014-07-25T00:04:53.982Z,0
2014-07-25T00:05:12.169Z,0
2014-07-25T00:05:30.359Z,0
2014-07-25T00:05:48.546Z,0
2014-07-25T00:06:06.749Z,0
2014-07-25T00:06:24.939Z,0
2014-07-25T00:06:43.126Z,0
2014-07-25T00:07:01.314Z,0
2014-07-25T00:07:19.501Z,0
2014-07-25T00:07:37.690Z,0
2014-07-25T00:07:55.893Z,0
2014-07-25T00:08:14.081Z,0
2014-07-25T00:08:32.271Z,0
2014-07-25T00:08:50.459Z,0
2014-07-25T00:09:08.646Z,0
2014-07-25T00:09:26.836Z,0
2014-07-25T00:09:45.039Z,0
2014-07-25T00:10:03.226Z,0
2014-07-25T00:10:21.414Z,0
2014-07-25T00:10:39.603Z,0
2014-07-25T00:10:57.791Z,0
2014-07-25T00:11:15.978Z,0
2014-07-25T00:11:34.168Z,0
2014-07-25T00:11:52.371Z,0
2014-07-25T00:12:10.558Z,0
2014-07-25T00:12:28.747Z,0
2014-07-25T00:12:46.934Z,0
2014-07-25T00:13:05.137Z,0
2014-07-25T00:13:23.325Z,0
2014-07-25T00:13:41.514Z,0
2014-07-25T00:13:59.702Z,0
2014-07-25T00:14:17.889Z,0
2014-07-25T00:14:36.079Z,0
2014-07-25T00:14:54.266Z,0
2014-07-25T00:15:12.454Z,0
2014-07-25T00:15:30.643Z,0
2014-07-25T00:15:48.831Z,0
2014-07-25T00:16:07.034Z,0
2014-07-25T00:16:25.222Z,0
2014-07-25T00:16:43.411Z,0
2014-07-25T00:17:01.599Z,0
2014-07-25T00:17:19.786Z,0
2014-07-25T00:17:37.977Z,0
2014-07-25T00:17:56.164Z,0
2014-07-25T00:18:14.367Z,0
2014-07-25T00:18:32.557Z,0
2014-07-25T00:18:50.744Z,0
2014-07-25T00:19:08.932Z,0
2014-07-25T00:19:27.119Z,0
2014-07-25T00:19:45.308Z,0
2014-07-25T00:20:03.495Z,0
2014-07-25T00:20:21.698Z,0
2014-07-25T00:20:39.888Z,0
2014-07-25T00:20:58.075Z,0
2014-07-25T00:21:16.263Z,0
2014-07-25T00:21:34.452Z,0
2014-07-25T00:21:52.640Z,0
2014-07-25T00:22:10.827Z,0
2014-07-25T00:22:29.030Z,0
2014-07-25T00:22:47.220Z,0
2014-07-25T00:23:05.407Z,0
2014-07-25T00:23:23.595Z,0
2014-07-25T00:23:41.784Z,0
2014-07-25T00:23:59.972Z,0
2014-07-25T00:24:18.175Z,0
2014-07-25T00:24:36.365Z,0
2014-07-25T00:24:54.552Z,0
2014-07-25T00:25:12.740Z,0
2014-07-25T00:25:30.927Z,0
2014-07-25T00:25:49.117Z,0
2014-07-25T00:26:07.304Z,0
2014-07-25T00:26:25.492Z,0
2014-07-25T00:26:43.681Z,0
2014-07-25T00:27:01.869Z,0
2014-07-25T00:27:20.072Z,0
2014-07-25T00:27:38.260Z,0
2014-07-25T00:27:56.448Z,0
2014-07-25T00:28:14.635Z,0
2014-07-25T00:28:32.823Z,0
2014-07-25T00:28:51.013Z,0
2014-07-25T00:29:09.201Z,0
2014-07-25T00:29:27.388Z,0
2014-07-25T00:29:45.578Z,0
2014-07-25T00:30:03.765Z,0
2014-07-25T00:30:21.953Z,0
2014-07-25T00:30:40.158Z,0
2014-07-25T00:30:58.345Z,0
2014-07-25T00:31:16.533Z,0
2014-07-25T00:31:34.720Z,0
2014-07-25T00:31:52.910Z,0
2014-07-25T00:32:11.097Z,0
2014-07-25T00:32:29.285Z,0
2014-07-25T00:32:47.490Z,0
2014-07-25T00:33:05.677Z,0
2014-07-25T00:33:23.865Z,0
2014-07-25T00:33:42.053Z,0
2014-07-25T00:34:00.241Z,0
2014-07-25T00:34:18.428Z,0
2014-07-25T00:34:36.616Z,0
2014-07-25T00:34:54.822Z,0
2014-07-25T00:35:13.010Z,0
2014-07-25T00:35:31.197Z,0
2014-07-25T00:35:49.387Z,0
2014-07-25T00:36:07.574Z,0
2014-07-25T00:36:25.762Z,0
2014-07-25T00:36:43.950Z,0
2014-07-25T00:37:02.138Z,0
2014-07-25T00:37:20.325Z,0
2014-07-25T00:37:38.528Z,0
2014-07-25T00:37:56.718Z,0
2014-07-25T00:38:14.905Z,0
2014-07-25T00:38:33.093Z,0
2014-07-25T00:38:51.282Z,0
2014-07-25T00:39:09.470Z,0
2014-07-25T00:39:27.657Z,0
2014-07-25T00:39:45.845Z,0
2014-07-25T00:40:04.034Z,0
2014-07-25T00:40:22.237Z,0
2014-07-25T00:40:40.425Z,0
2014-07-25T00:40:58.614Z,0
2014-07-25T00:41:16.802Z,0
2014-07-25T00:41:34.989Z,0
2014-07-25T00:41:53.179Z,0
2014-07-25T00:42:11.366Z,0
2014-07-25T00:42:29.569Z,0
2014-07-25T00:42:47.757Z,0
2014-07-25T00:43:05.946Z,0
2014-07-25T00:43:24.134Z,0
2014-07-25T00:43:42.321Z,0
2014-07-25T00:44:00.510Z,0
2014-07-25T00:44:18.697Z,0
2014-07-25T00:44:36.885Z,0
2014-07-25T00:44:55.091Z,0
2014-07-25T00:45:13.279Z,0
2014-07-25T00:45:31.466Z,0
2014-07-25T00:45:49.654Z,0
2014-07-25T00:46:07.843Z,0
2014-07-25T00:46:26.046Z,0
2014-07-25T00:46:44.234Z,0
2014-07-25T00:47:02.423Z,0
2014-07-25T00:47:20.611Z,0
2014-07-25T00:47:38.798Z,0
2014-07-25T00:47:56.987Z,0
2014-07-25T00:48:15.174Z,0
2014-07-25T00:48:33.362Z,0
2014-07-25T00:48:51.565Z,0
2014-07-25T00:49:09.755Z,0
2014-07-25T00:49:27.943Z,0
2014-07-25T00:49:46.130Z,0
2014-07-25T00:50:04.319Z,0
2014-07-25T00:50:22.506Z,0
2014-07-25T00:50:40.694Z,0
2014-07-25T00:50:58.900Z,0
2014-07-25T00:51:17.087Z,0
2014-07-25T00:51:35.275Z,0
2014-07-25T00:51:53.462Z,0
2014-07-25T00:52:11.652Z,0
2014-07-25T00:52:29.855Z,0
2014-07-25T00:52:48.043Z,0
2014-07-25T00:53:06.232Z,0
2014-07-25T00:53:24.420Z,0
2014-07-25T00:53:42.607Z,0
2014-07-25T00:54:00.797Z,0
2014-07-25T00:54:18.984Z,0
2014-07-25T00:54:37.187Z,0
2014-07-25T00:54:55.375Z,0
2014-07-25T00:55:13.563Z,0
2014-07-25T00:55:31.751Z,0
2014-07-25T00:55:49.938Z,0
2014-07-25T00:56:08.129Z,0
2014-07-25T00:56:26.316Z,0
2014-07-25T00:56:44.504Z,0
2014-07-25T00:57:02.693Z,0
2014-07-25T00:57:20.896Z,0
2014-07-25T00:57:39.084Z,0
2014-07-25T00:57:57.271Z,0
2014-07-25T00:58:15.460Z,0
2014-07-25T00:58:33.647Z,0
2014-07-25T00:58:51.835Z,0
2014-07-25T00:59:10.040Z,0
2014-07-25T00:59:28.227Z,0
2014-07-25T00:59:46.415Z,0
2014-07-25T01:00:04.604Z,0
2014-07-25T01:00:22.792Z,0
2014-07-25T01:00:40.979Z,0
2014-07-25T01:00:59.167Z,0
2014-07-25T01:01:17.356Z,0
2014-07-25T01:01:35.544Z,0
2014-07-25T01:01:53.747Z,0
2014-07-25T01:02:11.937Z,0
2014-07-25T01:02:30.124Z,0
2014-07-25T01:02:48.312Z,0
2014-07-25T01:03:06.500Z,0
2014-07-25T01:03:24.688Z,0
2014-07-25T01:03:42.875Z,0
2014-07-25T01:04:01.078Z,0
2014-07-25T01:04:19.268Z,0
2014-07-25T01:04:37.455Z,0
2014-07-25T01:04:55.643Z,0
2014-07-25T01:05:13.833Z,0
2014-07-25T01:05:32.021Z,0
2014-07-25T01:05:50.208Z,0
2014-07-25T01:06:08.413Z,0
2014-07-25T01:06:26.601Z,0
2014-07-25T01:06:44.788Z,0
2014-07-25T01:07:02.976Z,0
2014-07-25T01:07:21.164Z,0
2014-07-25T01:07:39.352Z,0
2014-07-25T01:07:57.539Z,0
2014-07-25T01:08:15.729Z,0
2014-07-25T01:08:33.916Z,0
2014-07-25T01:08:52.104Z,0
2014-07-25T01:09:10.293Z,0
2014-07-25T01:09:28.481Z,0
2014-07-25T01:09:46.668Z,0
2014-07-25T01:10:04.856Z,0
2014-07-25T01:10:23.045Z,0
2014-07-25T01:10:41.233Z,0
2014-07-25T01:10:59.420Z,0
2014-07-25T01:11:17.610Z,0
2014-07-25T01:11:35.797Z,0
2014-07-25T01:11:53.985Z,0
2014-07-25T01:12:12.174Z,0
2014-07-25T01:12:30.362Z,0
2014-07-25T01:12:48.549Z,0
2014-07-25T01:13:06.737Z,0
2014-07-25T01:13:24.926Z,0
2014-07-25T01:13:43.129Z,0
2014-07-25T01:14:01.317Z,0
2014-07-25T01:14:19.506Z,0
2014-07-25T01:14:37.694Z,0
2014-07-25T01:14:55.881Z,0
2014-07-25T01:15:14.072Z,0
2014-07-25T01:15:32.259Z,0
2014-07-25T01:15:50.447Z,0
2014-07-25T01:16:08.634Z,0
2014-07-25T01:16:26.839Z,0
2014-07-25T01:16:45.026Z,0
2014-07-25T01:17:03.214Z,0
2014-07-25T01:17:21.403Z,0
2014-07-25T01:17:39.591Z,0
2014-07-25T01:17:57.778Z,0
2014-07-25T01:18:15.968Z,0
2014-07-25T01:18:34.155Z,0
2014-07-25T01:18:52.358Z,0
2014-07-25T01:19:10.546Z,0
2014-07-25T01:19:28.735Z,0
2014-07-25T01:19:46.923Z,0
2014-07-25T01:20:05.110Z,0
2014-07-25T01:20:23.300Z,0
2014-07-25T01:20:41.487Z,0
2014-07-25T01:20:59.675Z,0
2014-07-25T01:21:17.863Z,0
2014-07-25T01:21:36.051Z,0
2014-07-25T01:21:54.238Z,0
2014-07-25T01:22:12.426Z,0
2014-07-25T01:22:30.616Z,0
2014-07-25T01:22:48.804Z,0
2014-07-25T01:23:06.991Z,0
2014-07-25T01:23:25.180Z,0
2014-07-25T01:23:43.367Z,0
2014-07-25T01:24:01.555Z,0
2014-07-25T01:24:19.744Z,0
2014-07-25T01:24:37.932Z,0
2014-07-25T01:24:56.119Z,0
2014-07-25T01:25:14.307Z,0
2014-07-25T01:25:32.497Z,0
2014-07-25T01:25:50.685Z,0
2014-07-25T01:26:08.872Z,0
2014-07-25T01:26:27.062Z,0
2014-07-25T01:26:45.249Z,0
2014-07-25T01:27:03.437Z,0
2014-07-25T01:27:21.624Z,0
2014-07-25T01:27:39.814Z,0
2014-07-25T01:27:58.001Z,0
2014-07-25T01:28:16.189Z,0
2014-07-25T01:28:34.378Z,0
2014-07-25T01:28:52.566Z,0
2014-07-25T01:29:10.753Z,0
2014-07-25T01:29:28.943Z,0
2014-07-25T01:29:47.130Z,0
2014-07-25T01:30:05.318Z,0
2014-07-25T01:30:23.505Z,0
2014-07-25T01:30:41.694Z,0
2014-07-25T01:30:59.881Z,0
2014-07-25T01:31:18.069Z,0
2014-07-25T01:31:36.258Z,0
2014-07-25T01:31:54.446Z,0
2014-07-25T01:32:12.633Z,0
2014-07-25T01:32:30.823Z,0
2014-07-25T01:32:49.010Z,0
2014-07-25T01:33:07.198Z,0
2014-07-25T01:33:25.385Z,0
2014-07-25T01:33:43.575Z,0
2014-07-25T01:34:01.762Z,0
2014-07-25T01:34:19.950Z,0
2014-07-25T01:34:38.139Z,0
2014-07-25T01:34:56.327Z,0
2014-07-25T01:35:14.514Z,0
2014-07-25T01:35:32.704Z,0
2014-07-25T01:35:50.891Z,0
2014-07-25T01:36:09.079Z,0
2014-07-25T01:36:27.266Z,0
2014-07-25T01:36:45.456Z,0
2014-07-25T01:37:03.643Z,0
2014-07-25T01:37:21.831Z,0
2014-07-25T01:37:40.004Z,0
2014-07-25T01:37:58.207Z,0
2014-07-25T01:38:16.394Z,0
2014-07-25T01:38:34.585Z,0
2014-07-25T01:38:52.772Z,0
2014-07-25T01:39:10.944Z,0
2014-07-25T01:39:29.147Z,0
2014-07-25T01:39:47.337Z,0
2014-07-25T01:40:05.524Z,0
2014-07-25T01:40:23.712Z,0
2014-07-25T01:40:41.901Z,0
2014-07-25T01:41:00.089Z,0
2014-07-25T01:41:18.276Z,0
2014-07-25T01:41:36.466Z,0
2014-07-25T01:41:54.653Z,0
2014-07-25T01:42:12.825Z,0
2014-07-25T01:42:31.013Z,0
2014-07-25T01:42:49.218Z,0
2014-07-25T01:43:07.390Z,0
2014-07-25T01:43:25.577Z,0
2014-07-25T01:43:43.781Z,0
2014-07-25T01:44:01.969Z,0
2014-07-25T01:44:20.156Z,0
2014-07-25T01:44:38.347Z,0
2014-07-25T01:44:56.534Z,0
2014-07-25T01:45:14.722Z,0
2014-07-25T01:45:32.909Z,0
2014-07-25T01:45:51.098Z,0
2014-07-25T01:46:09.285Z,0
2014-07-25T01:46:27.473Z,0
2014-07-25T01:46:45.662Z,0
2014-07-25T01:47:03.850Z,0
2014-07-25T01:47:22.037Z,0
2014-07-25T01:47:40.227Z,0
2014-07-25T01:47:58.414Z,0
2014-07-25T01:48:16.602Z,0
2014-07-25T01:48:34.789Z,0
2014-07-25T01:48:52.980Z,0
2014-07-25T01:49:11.152Z,0
2014-07-25T01:49:29.339Z,0
2014-07-25T01:49:47.543Z,0
2014-07-25T01:50:05.731Z,0
2014-07-25T01:50:23.918Z,0
2014-07-25T01:50:42.124Z,0
2014-07-25T01:51:00.312Z,0
2014-07-25T01:51:18.499Z,0
2014-07-25T01:51:36.687Z,0
2014-07-25T01:51:54.891Z,0
2014-07-25T01:52:13.078Z,0
2014-07-25T01:52:31.266Z,0
2014-07-25T01:52:49.455Z,0
2014-07-25T01:53:07.659Z,0
2014-07-25T01:53:25.846Z,0
2014-07-25T01:53:44.036Z,0
2014-07-25T01:54:02.239Z,0
2014-07-25T01:54:20.426Z,0
2014-07-25T01:54:38.614Z,0
2014-07-25T01:54:56.803Z,0
2014-07-25T01:55:15.006Z,0
2014-07-25T01:55:33.194Z,0
2014-07-25T01:55:51.383Z,0
2014-07-25T01:56:09.586Z,0
2014-07-25T01:56:27.774Z,0
2014-07-25T01:56:45.963Z,0
2014-07-25T01:57:04.167Z,0
2014-07-25T01:57:22.354Z,0
2014-07-25T01:57:40.557Z,0
2014-07-25T01:57:58.747Z,0
2014-07-25T01:58:16.934Z,0
2014-07-25T01:58:35.137Z,0
2014-07-25T01:58:53.327Z,0
2014-07-25T01:59:11.514Z,0
2014-07-25T01:59:29.702Z,0
2014-07-25T01:59:47.906Z,0
2014-07-25T02:00:06.093Z,0
2014-07-25T02:00:24.281Z,0
2014-07-25T02:00:42.484Z,0
2014-07-25T02:01:00.675Z,0
2014-07-25T02:01:18.862Z,0
2014-07-25T02:01:37.050Z,0
2014-07-25T02:01:55.238Z,0
2014-07-25T02:02:13.426Z,0
2014-07-25T02:02:31.613Z,0
2014-07-25T02:02:49.788Z,0
2014-07-25T02:03:07.991Z,0
2014-07-25T02:03:26.179Z,0
2014-07-25T02:03:44.366Z,0
2014-07-25T02:04:02.556Z,0
2014-07-25T02:04:20.727Z,0
2014-07-25T02:04:38.931Z,0
2014-07-25T02:04:57.120Z,0
2014-07-25T02:05:15.308Z,0
2014-07-25T02:05:33.495Z,0
2014-07-25T02:05:51.684Z,0
2014-07-25T02:06:09.871Z,0
2014-07-25T02:06:28.059Z,0
2014-07-25T02:06:46.246Z,0
2014-07-25T02:07:04.436Z,0
2014-07-25T02:07:22.623Z,0
2014-07-25T02:07:40.811Z,0
2014-07-25T02:07:59.001Z,0
2014-07-25T02:08:17.189Z,0
2014-07-25T02:08:35.376Z,0
2014-07-25T02:08:53.565Z,0
2014-07-25T02:09:11.752Z,0
2014-07-25T02:09:29.940Z,0
2014-07-25T02:09:48.127Z,0
2014-07-25T02:10:06.318Z,0
2014-07-25T02:10:24.505Z,0
2014-07-25T02:10:42.693Z,0
2014-07-25T02:11:00.881Z,0
2014-07-25T02:11:19.069Z,0
2014-07-25T02:11:37.256Z,0
2014-07-25T02:11:55.446Z,0
2014-07-25T02:12:13.633Z,0
2014-07-25T02:12:31.821Z,0
2014-07-25T02:12:50.008Z,0
2014-07-25T02:13:08.198Z,0
2014-07-25T02:13:26.385Z,0
2014-07-25T02:13:44.573Z,0
2014-07-25T02:14:02.762Z,0
2014-07-25T02:14:20.950Z,0
2014-07-25T02:14:39.137Z,0
2014-07-25T02:14:57.327Z,0
2014-07-25T02:15:15.514Z,0
2014-07-25T02:15:33.702Z,0
2014-07-25T02:15:51.889Z,0
2014-07-25T02:16:10.079Z,0
2014-07-25T02:16:28.266Z,0
2014-07-25T02:16:46.454Z,0
2014-07-25T02:17:04.643Z,0
2014-07-25T02:17:22.831Z,0
2014-07-25T02:17:41.018Z,0
2014-07-25T02:17:59.206Z,0
2014-07-25T02:18:17.394Z,0
2014-07-25T02:18:35.582Z,0
2014-07-25T02:18:53.769Z,0
2014-07-25T02:19:11.959Z,0
2014-07-25T02:19:30.146Z,0
2014-07-25T02:19:48.349Z,0
2014-07-25T02:20:06.539Z,0
2014-07-25T02:20:24.711Z,0
2014-07-25T02:20:42.914Z,0
2014-07-25T02:21:01.101Z,0
2014-07-25T02:21:19.292Z,0
2014-07-25T02:21:37.479Z,0
2014-07-25T02:21:55.667Z,0
2014-07-25T02:22:13.855Z,0
2014-07-25T02:22:32.043Z,0
2014-07-25T02:22:50.230Z,0
2014-07-25T02:23:08.420Z,0
2014-07-25T02:23:26.607Z,0
2014-07-25T02:23:44.795Z,0
2014-07-25T02:24:02.982Z,0
2014-07-25T02:24:21.173Z,0
2014-07-25T02:24:39.360Z,0
2014-07-25T02:24:57.548Z,0
2014-07-25T02:25:15.737Z,0
2014-07-25T02:25:33.925Z,0
2014-07-25T02:25:52.112Z,0
2014-07-25T02:26:10.301Z,0
2014-07-25T02:26:28.488Z,0
2014-07-25T02:26:46.676Z,0
2014-07-25T02:27:04.863Z,0
2014-07-25T02:27:23.053Z,0
2014-07-25T02:27:41.240Z,0
2014-07-25T02:27:59.428Z,0
2014-07-25T02:28:17.617Z,0
2014-07-25T02:28:35.805Z,0
2014-07-25T02:28:53.992Z,0
2014-07-25T02:29:12.182Z,0
2014-07-25T02:29:30.369Z,0
2014-07-25T02:29:48.557Z,0
2014-07-25T02:30:06.744Z,0
2014-07-25T02:30:24.934Z,0
2014-07-25T02:30:43.121Z,0
2014-07-25T02:31:01.309Z,0
2014-07-25T02:31:19.497Z,0
2014-07-25T02:31:37.685Z,0
2014-07-25T02:31:55.872Z,0
2014-07-25T02:32:14.063Z,0
2014-07-25T02:32:32.250Z,0
2014-07-25T02:32:50.438Z,0
2014-07-25T02:33:08.625Z,0
2014-07-25T02:33:26.815Z,0
2014-07-25T02:33:45.002Z,0
2014-07-25T02:34:03.190Z,0
2014-07-25T02:34:21.364Z,0
2014-07-25T02:34:39.567Z,0
2014-07-25T02:34:57.754Z,0
2014-07-25T02:35:15.943Z,0
2014-07-25T02:35:34.130Z,0
2014-07-25T02:35:52.318Z,0
2014-07-25T02:36:10.505Z,0
2014-07-25T02:36:28.696Z,0
2014-07-25T02:36:46.883Z,0
2014-07-25T02:37:05.071Z,0
2014-07-25T02:37:23.260Z,0
2014-07-25T02:37:41.448Z,0
2014-07-25T02:37:59.635Z,0
2014-07-25T02:38:17.824Z,0
2014-07-25T02:38:36.011Z,0
2014-07-25T02:38:54.199Z,0
2014-07-25T02:39:12.386Z,0
2014-07-25T02:39:30.576Z,0
2014-07-25T02:39:48.763Z,0
2014-07-25T02:40:06.951Z,0
2014-07-25T02:40:25.141Z,0
2014-07-25T02:40:43.329Z,0
2014-07-25T02:41:01.516Z,0
2014-07-25T02:41:19.705Z,0
2014-07-25T02:41:37.892Z,0
2014-07-25T02:41:56.080Z,0
2014-07-25T02:42:14.267Z,0
2014-07-25T02:42:32.458Z,0
2014-07-25T02:42:50.645Z,0
2014-07-25T02:43:08.833Z,0
2014-07-25T02:43:27.021Z,0
2014-07-25T02:43:45.209Z,0
2014-07-25T02:44:03.396Z,0
2014-07-25T02:44:21.586Z,0
2014-07-25T02:44:39.773Z,0
2014-07-25T02:44:57.961Z,0
2014-07-25T02:45:16.148Z,0
2014-07-25T02:45:34.338Z,0
2014-07-25T02:45:52.525Z,0
2014-07-25T02:46:10.713Z,0
2014-07-25T02:46:28.902Z,0
2014-07-25T02:46:47.090Z,0
2014-07-25T02:47:05.277Z,0
2014-07-25T02:47:23.467Z,0
2014-07-25T02:47:41.654Z,0
2014-07-25T02:47:59.842Z,0
2014-07-25T02:48:18.029Z,0
2014-07-25T02:48:36.219Z,0
2014-07-25T02:48:54.406Z,0
2014-07-25T02:49:12.578Z,0
2014-07-25T02:49:30.782Z,0
2014-07-25T02:49:48.954Z,0
2014-07-25T02:50:07.142Z,0
2014-07-25T02:50:25.347Z,0
2014-07-25T02:50:43.534Z,0
2014-07-25T02:51:01.722Z,0
2014-07-25T02:51:19.912Z,0
2014-07-25T02:51:38.100Z,0
2014-07-25T02:51:56.287Z,0
2014-07-25T02:52:14.490Z,0
2014-07-25T02:52:32.680Z,0
2014-07-25T02:52:50.867Z,0
2014-07-25T02:53:09.055Z,0
2014-07-25T02:53:27.244Z,0
2014-07-25T02:53:45.432Z,0
2014-07-25T02:54:03.619Z,0
2014-07-25T02:54:21.809Z,0
2014-07-25T02:54:39.996Z,0
2014-07-25T02:54:58.184Z,0
2014-07-25T02:55:16.371Z,0
2014-07-25T02:55:34.561Z,0
2014-07-25T02:55:52.748Z,0
2014-07-25T02:56:10.936Z,0
2014-07-25T02:56:29.124Z,0
2014-07-25T02:56:47.312Z,0
2014-07-25T02:57:05.499Z,0
2014-07-25T02:57:23.689Z,0
2014-07-25T02:57:41.876Z,0
2014-07-25T02:58:00.064Z,0
2014-07-25T02:58:18.251Z,0
2014-07-25T02:58:36.441Z,0
2014-07-25T02:58:54.628Z,0
2014-07-25T02:59:12.816Z,0
2014-07-25T02:59:31.005Z,0
2014-07-25T02:59:49.193Z,0
2014-07-25T03:00:07.380Z,0
2014-07-25T03:00:25.570Z,0
2014-07-25T03:00:43.757Z,0
2014-07-25T03:01:01.945Z,0
2014-07-25T03:01:20.132Z,0
2014-07-25T03:01:38.322Z,0
2014-07-25T03:01:56.509Z,0
2014-07-25T03:02:14.697Z,0
2014-07-25T03:02:32.886Z,0
2014-07-25T03:02:51.074Z,0
2014-07-25T03:03:09.261Z,0
2014-07-25T03:03:27.451Z,0
2014-07-25T03:03:45.638Z,0
2014-07-25T03:04:03.826Z,0
2014-07-25T03:04:22.013Z,0
2014-07-25T03:04:40.203Z,0
2014-07-25T03:04:58.390Z,0
2014-07-25T03:05:16.578Z,0
2014-07-25T03:05:34.767Z,0
2014-07-25T03:05:52.955Z,0
2014-07-25T03:06:11.142Z,0
2014-07-25T03:06:29.332Z,0
2014-07-25T03:06:47.519Z,0
2014-07-25T03:07:05.707Z,0
2014-07-25T03:07:23.894Z,0
2014-07-25T03:07:42.099Z,0
2014-07-25T03:08:00.287Z,0
2014-07-25T03:08:18.474Z,0
2014-07-25T03:08:36.664Z,0
2014-07-25T03:08:54.851Z,0
2014-07-25T03:09:13.039Z,0
2014-07-25T03:09:31.211Z,0
2014-07-25T03:09:49.416Z,0
2014-07-25T03:10:07.603Z,0
2014-07-25T03:10:25.791Z,0
2014-07-25T03:10:43.979Z,0
2014-07-25T03:11:02.167Z,0
2014-07-25T03:11:20.354Z,0
2014-07-25T03:11:38.544Z,0
2014-07-25T03:11:56.731Z,0
2014-07-25T03:12:14.919Z,0
2014-07-25T03:12:33.106Z,0
2014-07-25T03:12:51.296Z,0
2014-07-25T03:13:09.483Z,0
2014-07-25T03:13:27.671Z,0
2014-07-25T03:13:45.861Z,0
2014-07-25T03:14:04.033Z,0
2014-07-25T03:14:22.221Z,0
2014-07-25T03:14:40.426Z,0
2014-07-25T03:14:58.613Z,0
2014-07-25T03:15:16.801Z,0
2014-07-25T03:15:34.988Z,0
2014-07-25T03:15:53.177Z,0
2014-07-25T03:16:11.364Z,0
2014-07-25T03:16:29.552Z,0
2014-07-25T03:16:47.741Z,0
2014-07-25T03:17:05.929Z,0
2014-07-25T03:17:24.116Z,0
2014-07-25T03:17:42.306Z,0
2014-07-25T03:18:00.493Z,0
2014-07-25T03:18:18.681Z,0
2014-07-25T03:18:36.868Z,0
2014-07-25T03:18:55.074Z,0
2014-07-25T03:19:13.261Z,0
2014-07-25T03:19:31.449Z,0
2014-07-25T03:19:49.638Z,0
2014-07-25T03:20:07.810Z,0
2014-07-25T03:20:26.013Z,0
2014-07-25T03:20:44.203Z,0
2014-07-25T03:21:02.390Z,0
2014-07-25T03:21:20.578Z,0
2014-07-25T03:21:38.765Z,0
2014-07-25T03:21:56.955Z,0
2014-07-25T03:22:15.142Z,0
2014-07-25T03:22:33.330Z,0
2014-07-25T03:22:51.519Z,0
2014-07-25T03:23:09.707Z,0
2014-07-25T03:23:27.894Z,0
2014-07-25T03:23:46.084Z,0
2014-07-25T03:24:04.271Z,0
2014-07-25T03:24:22.459Z,0
2014-07-25T03:24:40.646Z,0
2014-07-25T03:24:58.836Z,0
2014-07-25T03:25:17.023Z,0
2014-07-25T03:25:35.211Z,0
2014-07-25T03:25:53.400Z,0
2014-07-25T03:26:11.588Z,0
2014-07-25T03:26:29.775Z,0
2014-07-25T03:26:47.965Z,0
2014-07-25T03:27:06.152Z,0
2014-07-25T03:27:24.340Z,0
2014-07-25T03:27:42.527Z,0
2014-07-25T03:28:00.717Z,0
2014-07-25T03:28:18.904Z,0
2014-07-25T03:28:37.092Z,0
2014-07-25T03:28:55.280Z,0
2014-07-25T03:29:13.468Z,0
2014-07-25T03:29:31.655Z,0
2014-07-25T03:29:49.845Z,0
2014-07-25T03:30:08.032Z,0
2014-07-25T03:30:26.220Z,0
2014-07-25T03:30:44.407Z,0
2014-07-25T03:31:02.598Z,0
2014-07-25T03:31:20.785Z,0
2014-07-25T03:31:38.973Z,0
2014-07-25T03:31:57.161Z,0
2014-07-25T03:32:15.349Z,1
2014-07-25T03:32:33.536Z,1
2014-07-25T03:32:51.726Z,1
2014-07-25T03:33:09.913Z,1
2014-07-25T03:33:28.101Z,1
2014-07-25T03:33:46.288Z,1
2014-07-25T03:34:04.478Z,1
2014-07-25T03:34:22.665Z,1
2014-07-25T03:34:40.853Z,1
2014-07-25T03:34:59.042Z,1
2014-07-25T03:35:17.230Z,1
2014-07-25T03:35:35.417Z,1
2014-07-25T03:35:53.607Z,1
2014-07-25T03:36:11.794Z,1
2014-07-25T03:36:29.982Z,1
2014-07-25T03:36:48.169Z,2
2014-07-25T03:37:06.359Z,1
2014-07-25T03:37:24.546Z,2
2014-07-25T03:37:42.734Z,2
2014-07-25T03:38:00.923Z,2
2014-07-25T03:38:19.111Z,2
2014-07-25T03:38:37.298Z,2
2014-07-25T03:38:55.488Z,2
2014-07-25T03:39:13.675Z,2
2014-07-25T03:39:31.863Z,2
2014-07-25T03:39:50.050Z,3
2014-07-25T03:40:08.240Z,3
2014-07-25T03:40:26.427Z,3
2014-07-25T03:40:44.615Z,3
2014-07-25T03:41:02.804Z,3
2014-07-25T03:41:20.992Z,3
2014-07-25T03:41:39.179Z,3
2014-07-25T03:41:57.369Z,3
2014-07-25T03:42:15.556Z,3
2014-07-25T03:42:33.744Z,4
2014-07-25T03:42:51.931Z,4
2014-07-25T03:43:10.120Z,3
2014-07-25T03:43:28.307Z,4
2014-07-25T03:43:46.495Z,4
2014-07-25T03:44:04.685Z,4
2014-07-25T03:44:22.873Z,4
2014-07-25T03:44:41.060Z,4
2014-07-25T03:44:59.250Z,4
2014-07-25T03:45:17.437Z,4
2014-07-25T03:45:35.625Z,4
2014-07-25T03:45:53.812Z,4
2014-07-25T03:46:12.001Z,4
2014-07-25T03:46:30.188Z,4
2014-07-25T03:46:48.376Z,4
2014-07-25T03:47:06.565Z,5
2014-07-25T03:47:24.753Z,4
2014-07-25T03:47:42.940Z,4
2014-07-25T03:48:01.131Z,5
2014-07-25T03:48:19.318Z,5
2014-07-25T03:48:37.506Z,4
2014-07-25T03:48:55.693Z,5
2014-07-25T03:49:13.883Z,5
2014-07-25T03:49:32.070Z,5
2014-07-25T03:49:50.258Z,5
2014-07-25T03:50:08.447Z,5
2014-07-25T03:50:26.635Z,5
2014-07-25T03:50:44.822Z,3
2014-07-25T03:51:03.010Z,3
2014-07-25T03:51:21.198Z,3
2014-07-25T03:51:39.386Z,3
2014-07-25T03:51:57.573Z,3
2014-07-25T03:52:15.764Z,3
2014-07-25T03:52:33.951Z,3
2014-07-25T03:52:52.139Z,3
2014-07-25T03:53:10.327Z,3
2014-07-25T03:53:28.515Z,3
2014-07-25T03:53:46.702Z,4
2014-07-25T03:54:04.890Z,3
2014-07-25T03:54:23.079Z,4
2014-07-25T03:54:41.267Z,4
2014-07-25T03:54:59.454Z,4
2014-07-25T03:55:17.644Z,4
2014-07-25T03:55:35.831Z,4
2014-07-25T03:55:54.019Z,4
2014-07-25T03:56:12.208Z,4
2014-07-25T03:56:30.396Z,4
2014-07-25T03:56:48.583Z,4
2014-07-25T03:57:06.771Z,3
2014-07-25T03:57:24.960Z,3
2014-07-25T03:57:43.148Z,3
2014-07-25T03:58:01.335Z,3
2014-07-25T03:58:19.525Z,3
2014-07-25T03:58:37.712Z,3
2014-07-25T03:58:55.900Z,3
2014-07-25T03:59:14.087Z,3
2014-07-25T03:59:32.277Z,3
2014-07-25T03:59:50.464Z,5
2014-07-25T04:00:08.652Z,5
2014-07-25T04:00:26.841Z,5
2014-07-25T04:00:45.029Z,5
2014-07-25T04:01:03.216Z,5
2014-07-25T04:01:21.406Z,5
2014-07-25T04:01:39.593Z,5
2014-07-25T04:01:57.781Z,5
2014-07-25T04:02:15.968Z,5
2014-07-25T04:02:34.158Z,5
2014-07-25T04:02:52.345Z,5
2014-07-25T04:03:10.533Z,5
2014-07-25T04:03:28.722Z,5
2014-07-25T04:03:46.910Z,5
2014-07-25T04:04:05.097Z,5
2014-07-25T04:04:23.287Z,5
2014-07-25T04:04:41.474Z,5
2014-07-25T04:04:59.662Z,5
2014-07-25T04:05:17.849Z,5
2014-07-25T04:05:36.039Z,6
2014-07-25T04:05:54.226Z,6
2014-07-25T04:06:12.414Z,6
2014-07-25T04:06:30.603Z,6
2014-07-25T04:06:48.791Z,6
2014-07-25T04:07:06.978Z,7
2014-07-25T04:07:25.167Z,7
2014-07-25T04:07:43.354Z,7
2014-07-25T04:08:01.542Z,7
2014-07-25T04:08:19.729Z,7
2014-07-25T04:08:37.920Z,7
2014-07-25T04:08:56.107Z,7
2014-07-25T04:09:14.295Z,7
2014-07-25T04:09:32.483Z,7
2014-07-25T04:09:50.671Z,7
2014-07-25T04:10:08.858Z,7
2014-07-25T04:10:27.048Z,7
2014-07-25T04:10:45.235Z,7
2014-07-25T04:11:03.423Z,7
2014-07-25T04:11:21.610Z,7
2014-07-25T04:11:39.800Z,7
2014-07-25T04:11:57.987Z,8
2014-07-25T04:12:16.175Z,8
2014-07-25T04:12:34.364Z,8
2014-07-25T04:12:52.552Z,8
2014-07-25T04:13:10.739Z,8
2014-07-25T04:13:28.929Z,8
2014-07-25T04:13:47.116Z,8
2014-07-25T04:14:05.304Z,8
2014-07-25T04:14:23.491Z,8
2014-07-25T04:14:41.681Z,8
2014-07-25T04:14:59.868Z,8
2014-07-25T04:15:18.056Z,8
2014-07-25T04:15:36.246Z,9
2014-07-25T04:15:54.434Z,9
2014-07-25T04:16:12.621Z,9
2014-07-25T04:16:30.810Z,9
2014-07-25T04:16:48.997Z,9
2014-07-25T04:17:07.185Z,9
2014-07-25T04:17:25.372Z,10
2014-07-25T04:17:43.562Z,10
2014-07-25T04:18:01.749Z,10
2014-07-25T04:18:19.937Z,10
2014-07-25T04:18:38.126Z,10
2014-07-25T04:18:56.314Z,10
2014-07-25T04:19:14.517Z,10
2014-07-25T04:19:32.706Z,10
2014-07-25T04:19:50.894Z,10
2014-07-25T04:20:09.081Z,10
2014-07-25T04:20:27.269Z,10
2014-07-25T04:20:45.458Z,11
2014-07-25T04:21:03.646Z,11
2014-07-25T04:21:21.833Z,11
2014-07-25T04:21:40.023Z,11
2014-07-25T04:21:58.210Z,11
2014-07-25T04:22:16.398Z,11
2014-07-25T04:22:34.603Z,11
2014-07-25T04:22:52.790Z,11
2014-07-25T04:23:10.978Z,11
2014-07-25T04:23:29.165Z,11
2014-07-25T04:23:47.355Z,11
2014-07-25T04:24:05.542Z,11
2014-07-25T04:24:23.730Z,11
2014-07-25T04:24:41.919Z,11
2014-07-25T04:25:00.107Z,11
2014-07-25T04:25:18.294Z,11
2014-07-25T04:25:36.498Z,11
2014-07-25T04:25:54.686Z,12
2014-07-25T04:26:12.873Z,12
2014-07-25T04:26:31.061Z,12
2014-07-25T04:26:49.251Z,12
2014-07-25T04:27:07.439Z,12
2014-07-25T04:27:25.626Z,12
2014-07-25T04:27:43.816Z,12
2014-07-25T04:28:02.003Z,12
2014-07-25T04:28:20.191Z,12